Time;durP1;ratioP1;P1;durP2;ratioP2;P2;SDS_P1;SDS_P2;PMS_P1;PMS_P2;Temp;Humidity;BMP_temperature;BMP_pressure;BME280_temperature;BME280_humidity;BME280_pressure;Samples;Min_cycle;Max_cycle;Signal;HPM_P1;HPM_P2
2022/11/29 00:01:25;;;;;;;28.70;16.60;;;8.50;99.90;;;-144.05;85.09;125687.94;4997448;28;20331;-79
2022/11/29 00:03:53;;;;;;;37.15;18.50;;;8.50;99.90;;;-144.05;85.02;125687.94;5015294;28;20481;-79
2022/11/29 00:06:28;;;;;;;29.90;17.05;;;8.50;99.90;;;-144.05;85.05;125687.94;5013531;28;20033;-78
2022/11/29 00:08:58;;;;;;;29.07;17.13;;;8.50;99.90;;;-144.05;85.06;125687.94;5013285;28;20038;-79
2022/11/29 00:14:18;;;;;;;28.63;17.70;;;8.50;99.90;;;-144.05;85.01;125687.94;5014457;28;20087;-78
2022/11/29 00:16:51;;;;;;;28.27;17.08;;;8.50;99.90;;;-144.05;84.75;125687.94;5014637;28;20037;-79
2022/11/29 00:19:18;;;;;;;27.27;16.20;;;8.60;99.90;;;-144.05;84.93;125687.94;5014328;28;20473;-79
2022/11/29 00:21:44;;;;;;;28.10;17.15;;;8.50;99.90;;;-144.05;84.77;125687.94;5014346;28;20092;-79
2022/11/29 00:24:10;;;;;;;23.58;15.23;;;8.50;99.90;;;-144.05;85.24;125687.94;4996149;28;20048;-78
2022/11/29 00:26:38;;;;;;;26.23;15.73;;;8.50;99.90;;;-144.05;85.17;125687.94;5014052;28;20482;-78
2022/11/29 00:29:04;;;;;;;24.60;15.18;;;8.50;99.90;;;-144.05;85.17;125687.94;5013431;28;20411;-79
2022/11/29 00:31:33;;;;;;;28.00;16.83;;;8.50;99.90;;;-144.05;85.37;125687.94;5018975;28;20036;-78
2022/11/29 00:34:03;;;;;;;27.67;16.33;;;8.50;99.90;;;-144.05;85.25;125687.94;5024440;28;20038;-79
2022/11/29 00:36:29;;;;;;;27.77;16.92;;;8.60;99.90;;;-144.05;85.46;125687.94;5014794;28;20476;-79
2022/11/29 00:38:55;;;;;;;22.98;14.50;;;8.50;99.90;;;-144.05;85.33;125687.94;5013406;28;20030;-79
2022/11/29 00:41:21;;;;;;;29.08;18.38;;;8.50;99.90;;;-144.05;85.35;125687.94;5013994;28;20057;-79
2022/11/29 00:43:47;;;;;;;31.98;18.63;;;8.50;99.90;;;-144.05;85.01;125687.94;5013196;28;20120;-79
2022/11/29 00:46:13;;;;;;;32.05;18.08;;;8.50;99.90;;;-144.05;85.33;125687.94;5014245;28;20036;-79
2022/11/29 00:48:39;;;;;;;31.73;17.42;;;8.60;99.90;;;-144.05;85.27;125687.94;5012517;28;20036;-79
2022/11/29 00:51:06;;;;;;;33.05;18.38;;;8.50;99.90;;;-144.05;85.29;125687.94;5013695;28;20129;-79
2022/11/29 00:53:35;;;;;;;29.85;17.25;;;8.60;99.90;;;-144.05;85.25;125687.94;5012494;28;20037;-79
2022/11/29 00:56:02;;;;;;;31.52;17.40;;;8.60;99.90;;;-144.05;85.19;125687.94;5013842;28;20416;-79
2022/11/29 00:58:29;;;;;;;33.75;18.85;;;8.50;99.90;;;-144.05;85.01;125687.94;5011692;28;20536;-78
2022/11/29 01:00:55;;;;;;;30.08;18.08;;;8.60;99.90;;;-144.05;85.27;125687.94;5012013;28;20045;-79
2022/11/29 01:03:23;;;;;;;30.33;17.45;;;8.60;99.90;;;-144.05;85.16;125687.94;5011924;28;20104;-78
2022/11/29 01:05:50;;;;;;;31.80;18.75;;;8.60;99.90;;;-144.05;85.04;125687.94;5011940;28;20040;-79
2022/11/29 01:08:17;;;;;;;28.05;16.85;;;8.60;99.90;;;-144.05;85.04;125687.94;5013029;28;20080;-78
2022/11/29 01:10:43;;;;;;;30.52;17.60;;;8.60;99.90;;;-144.05;85.36;125687.94;5012679;28;20467;-79
2022/11/29 01:13:10;;;;;;;32.33;18.70;;;8.60;99.90;;;-144.05;85.56;125687.94;5012830;28;20033;-78
2022/11/29 01:15:36;;;;;;;30.38;17.92;;;8.60;99.90;;;-144.05;85.34;125687.94;4995091;28;20478;-79
2022/11/29 01:18:02;;;;;;;32.58;19.42;;;8.60;99.90;;;-144.05;85.43;125687.94;5012545;28;20034;-79
2022/11/29 01:20:28;;;;;;;29.95;17.73;;;8.60;99.90;;;-144.05;85.27;125687.94;5011574;28;20033;-79
2022/11/29 01:22:54;;;;;;;29.05;18.40;;;8.50;99.90;;;-144.05;85.42;125687.94;5011298;28;20609;-78
2022/11/29 01:25:20;;;;;;;28.52;17.45;;;8.60;99.90;;;-144.05;85.53;125687.94;5012681;28;20034;-78
2022/11/29 01:27:46;;;;;;;31.20;18.25;;;8.60;99.90;;;-144.05;85.30;125687.94;5011227;28;20033;-78
2022/11/29 01:30:12;;;;;;;30.88;18.13;;;8.60;99.90;;;-144.05;85.27;125687.94;5013733;28;20099;-78
2022/11/29 01:32:38;;;;;;;30.33;18.95;;;8.60;99.90;;;-144.05;85.37;125687.94;5012021;28;20049;-78
2022/11/29 01:35:06;;;;;;;28.15;16.05;;;8.60;99.90;;;-144.05;85.50;125687.94;5011491;28;20025;-78
2022/11/29 01:37:32;;;;;;;30.77;17.15;;;8.60;99.90;;;-144.05;85.42;125687.94;5011959;28;20173;-78
2022/11/29 01:39:58;;;;;;;27.73;16.65;;;8.60;99.90;;;-144.05;85.71;125687.94;5011933;28;20026;-78
2022/11/29 01:42:24;;;;;;;28.70;15.45;;;8.60;99.90;;;-144.05;85.64;125687.94;5010713;28;20045;-78
2022/11/29 01:45:12;;;;;;;28.60;16.58;;;8.60;99.90;;;-144.05;85.54;125687.94;5014349;28;20034;-78
2022/11/29 01:47:45;;;;;;;23.48;15.15;;;8.60;99.90;;;-144.05;85.55;125687.94;5014946;28;20025;-78
2022/11/29 01:50:12;;;;;;;27.17;15.10;;;8.60;99.90;;;-144.05;85.44;125687.94;4998325;28;20026;-78
2022/11/29 01:52:38;;;;;;;24.05;15.38;;;8.60;99.90;;;-144.05;85.39;125687.94;5014313;28;20038;-78
2022/11/29 01:55:09;;;;;;;28.40;15.18;;;8.60;99.90;;;-144.05;85.50;125687.94;5014406;28;20057;-78
2022/11/29 01:57:40;;;;;;;25.55;14.05;;;8.60;99.90;;;-144.05;85.61;125687.94;5016010;28;20062;-78
2022/11/29 02:00:15;;;;;;;26.77;14.55;;;8.60;99.90;;;-144.05;85.71;125687.94;5015680;28;20018;-77
2022/11/29 02:03:00;;;;;;;24.50;14.70;;;8.60;99.90;;;-144.05;85.82;125687.94;5015842;28;20022;-78
2022/11/29 02:05:27;;;;;;;20.73;12.88;;;8.60;99.90;;;-144.05;85.93;125687.94;4998044;28;20034;-78
2022/11/29 02:07:58;;;;;;;21.10;12.77;;;8.60;99.90;;;-144.05;85.76;125687.94;4997811;28;20033;-78
2022/11/29 02:11:12;;;;;;;22.23;12.98;;;8.60;99.90;;;-144.05;85.77;125687.94;5015465;28;20037;-78
2022/11/29 02:14:02;;;;;;;18.95;11.65;;;8.60;99.90;;;-144.05;85.59;125687.94;4992094;28;20524;-78
2022/11/29 02:16:47;;;;;;;19.10;11.75;;;8.60;99.90;;;-144.05;85.91;125687.94;5014179;28;20038;-78
2022/11/29 02:20:10;;;;;;;17.77;10.88;;;8.60;99.90;;;-144.05;85.86;125687.94;5015343;28;20493;-78
2022/11/29 02:23:06;;;;;;;20.80;10.95;;;8.60;99.90;;;-144.05;85.82;125687.94;5013785;28;20022;-78
2022/11/29 02:26:18;;;;;;;22.13;11.43;;;8.60;99.90;;;-144.05;85.43;125687.94;5025044;28;20026;-79
2022/11/29 02:29:45;;;;;;;20.48;11.65;;;8.60;99.90;;;-144.05;85.62;125687.94;5016242;28;20120;-79
2022/11/29 02:32:55;;;;;;;22.15;10.68;;;8.60;99.90;;;-144.05;85.55;125687.94;5016911;28;20419;-79
2022/11/29 02:36:30;;;;;;;22.63;9.73;;;8.50;99.90;;;-144.05;85.39;125687.94;5016290;28;20030;-79
2022/11/29 02:39:30;;;;;;;20.98;10.50;;;8.50;99.90;;;-144.05;85.71;125687.94;4995930;28;20044;-79
2022/11/29 02:42:48;;;;;;;24.83;11.68;;;8.50;99.90;;;-144.05;85.50;125687.94;5016204;28;20030;-78
2022/11/29 02:45:54;;;;;;;20.80;10.90;;;8.50;99.90;;;-144.05;85.62;125687.94;4998031;28;20094;-78
2022/11/29 02:49:01;;;;;;;22.38;11.48;;;8.50;99.90;;;-144.05;85.43;125687.94;5015689;28;20061;-77
2022/11/29 02:52:11;;;;;;;24.63;12.55;;;8.50;99.90;;;-144.05;85.45;125687.94;5015413;28;20156;-78
2022/11/29 02:55:16;;;;;;;28.13;12.65;;;8.50;99.90;;;-144.05;85.19;125687.94;4987336;28;20117;-79
2022/11/29 02:58:05;;;;;;;22.88;12.10;;;8.50;99.90;;;-144.05;85.47;125687.94;5015203;28;20026;-78
2022/11/29 03:00:42;;;;;;;22.02;12.27;;;8.50;99.90;;;-144.05;85.32;125687.94;5018580;28;20018;-78
2022/11/29 03:03:32;;;;;;;43.85;22.83;;;8.40;99.90;;;-144.05;85.48;125687.94;5023404;28;20030;-78
2022/11/29 03:07:02;;;;;;;43.15;22.23;;;8.40;99.90;;;-144.05;85.64;125687.94;5015736;28;20026;-78
2022/11/29 03:09:42;;;;;;;41.78;22.70;;;8.40;99.90;;;-144.05;85.82;125687.94;5016700;28;20036;-77
2022/11/29 03:12:35;;;;;;;48.42;22.85;;;8.40;99.90;;;-144.05;85.41;125687.94;4998888;28;20401;-77
2022/11/29 03:15:21;;;;;;;41.45;20.52;;;8.40;99.90;;;-144.05;85.71;125687.94;5016139;28;20496;-78
2022/11/29 03:18:32;;;;;;;38.67;18.23;;;8.40;99.90;;;-144.05;85.87;125687.94;5014250;28;20034;-80
2022/11/29 03:21:18;;;;;;;29.95;14.80;;;8.40;99.90;;;-144.05;85.41;125687.94;5015275;28;20036;-79
2022/11/29 03:23:53;;;;;;;28.58;15.38;;;8.40;99.90;;;-144.05;85.69;125687.94;5014780;28;20029;-78
2022/11/29 03:26:54;;;;;;;32.05;15.27;;;8.40;99.90;;;-144.05;85.62;125687.94;5014943;28;20485;-78
2022/11/29 03:29:41;;;;;;;31.10;14.95;;;8.40;99.90;;;-144.05;85.64;125687.94;5014931;28;20317;-77
2022/11/29 03:32:38;;;;;;;35.40;15.38;;;8.40;99.90;;;-144.05;85.31;125687.94;5014528;28;20142;-78
2022/11/29 03:35:45;;;;;;;35.80;16.63;;;8.40;99.90;;;-144.05;85.45;125687.94;5014799;28;20030;-78
2022/11/29 03:38:29;;;;;;;36.53;17.25;;;8.40;99.90;;;-144.05;85.41;125687.94;4996585;28;20034;-79
2022/11/29 03:40:55;;;;;;;48.72;17.17;;;8.40;99.90;;;-144.05;85.41;125687.94;5014518;28;20038;-79
2022/11/29 03:44:01;;;;;;;49.05;18.33;;;8.40;99.90;;;-144.05;85.16;125687.94;5014615;28;20477;-80
2022/11/29 03:47:09;;;;;;;54.03;19.80;;;8.40;99.90;;;-144.05;85.22;125687.94;5013288;28;20100;-78
2022/11/29 03:50:03;;;;;;;54.05;17.13;;;8.40;99.90;;;-144.05;84.64;125687.94;5014227;28;20273;-78
2022/11/29 03:52:50;;;;;;;49.35;16.30;;;8.30;99.90;;;-144.05;84.77;125687.94;5013995;28;20030;-77
2022/11/29 03:56:00;;;;;;;51.28;17.85;;;8.30;99.90;;;-144.05;84.77;125687.94;5014392;28;20177;-78
2022/11/29 03:59:03;;;;;;;46.58;16.85;;;8.30;99.90;;;-144.05;85.16;125687.94;5012800;28;20054;-80
2022/11/29 04:02:09;;;;;;;52.70;18.77;;;8.30;99.90;;;-144.05;85.22;125687.94;5012656;28;20282;-77
2022/11/29 04:05:15;;;;;;;52.13;16.80;;;8.30;99.90;;;-144.05;84.79;125687.94;5014195;28;20112;-77
2022/11/29 04:08:47;;;;;;;49.92;17.25;;;8.30;99.90;;;-144.05;84.94;125687.94;5070440;28;20383;-77
2022/11/29 04:11:58;;;;;;;54.90;18.13;;;8.30;99.90;;;-144.05;85.12;125687.94;5049486;28;20397;-78
2022/11/29 04:14:37;;;;;;;51.97;17.50;;;8.30;99.90;;;-144.05;85.22;125687.94;5049921;28;20396;-77
2022/11/29 04:17:36;;;;;;;59.45;18.83;;;8.30;99.90;;;-144.05;85.21;125687.94;5048351;28;20495;-77
2022/11/29 04:21:19;;;;;;;48.05;17.55;;;8.30;99.90;;;-144.05;85.48;125687.94;5051727;28;20112;-78
2022/11/29 04:24:28;;;;;;;48.15;17.50;;;8.20;99.90;;;-144.05;85.19;125687.94;5046760;28;20067;-76
2022/11/29 04:27:43;;;;;;;49.63;18.13;;;8.20;99.90;;;-144.05;85.01;125687.94;5050846;28;20495;-76
2022/11/29 04:30:23;;;;;;;53.97;17.80;;;8.20;99.90;;;-144.05;84.89;125687.94;5050895;28;20105;-76
2022/11/29 04:33:54;;;;;;;52.88;17.75;;;8.20;99.90;;;-144.05;85.08;125687.94;5049879;28;20029;-77
2022/11/29 04:37:01;;;;;;;43.92;18.08;;;8.20;99.90;;;-144.05;84.94;125687.94;5048291;28;20048;-79
2022/11/29 04:39:47;;;;;;;41.47;16.27;;;8.20;99.90;;;-144.05;85.03;125687.94;5049738;28;20029;-78
2022/11/29 04:42:49;;;;;;;48.55;17.27;;;8.20;99.90;;;-144.05;84.77;125687.94;5050092;28;20029;-76
2022/11/29 04:45:46;;;;;;;50.78;17.20;;;8.10;99.90;;;-144.05;84.62;125687.94;5049737;28;20039;-80
2022/11/29 04:49:09;;;;;;;44.33;16.17;;;8.20;99.90;;;-144.05;84.95;125687.94;5049758;28;20057;-79
2022/11/29 04:52:08;;;;;;;43.28;15.80;;;8.10;99.90;;;-144.05;85.10;125687.94;5041035;28;20073;-78
2022/11/29 04:55:10;;;;;;;43.15;17.33;;;8.10;99.90;;;-144.05;84.72;125687.94;5064961;28;20033;-77
2022/11/29 04:57:57;;;;;;;39.38;15.63;;;8.10;99.90;;;-144.05;85.16;125687.94;5048746;28;20385;-78
2022/11/29 05:00:24;;;;;;;;;;;8.10;99.90;;;-144.05;85.16;125687.94;5052786;28;20033;-80
2022/11/29 05:03:19;;;;;;;43.25;16.08;;;8.10;99.90;;;-144.05;84.94;125687.94;5059858;28;19908;-78
2022/11/29 05:06:36;;;;;;;51.40;17.48;;;8.10;99.90;;;-144.05;85.17;125687.94;5048604;28;20029;-77
2022/11/29 05:09:39;;;;;;;37.92;13.80;;;8.10;99.90;;;-144.05;84.88;125687.94;5042488;28;20527;-78
2022/11/29 05:12:32;;;;;;;43.60;16.48;;;8.10;99.90;;;-144.05;85.19;125687.94;5047377;28;20059;-78
2022/11/29 05:15:31;;;;;;;39.67;14.48;;;8.10;99.90;;;-144.05;85.13;125687.94;5047291;28;20488;-79
2022/11/29 05:18:56;;;;;;;42.50;17.00;;;8.10;99.90;;;-144.05;85.17;125687.94;5042439;28;20036;-77
2022/11/29 05:22:00;;;;;;;42.15;17.45;;;8.10;99.90;;;-144.05;85.13;125687.94;5018951;28;20037;-78
2022/11/29 05:25:24;;;;;;;44.15;17.00;;;8.10;99.90;;;-144.05;85.18;125687.94;5035173;28;20021;-77
2022/11/29 05:28:49;;;;;;;46.25;16.77;;;8.10;99.90;;;-144.05;84.97;125687.94;5035432;28;20029;-78
2022/11/29 05:32:01;;;;;;;45.47;16.73;;;8.10;99.90;;;-144.05;84.72;125687.94;5045745;28;20065;-79
2022/11/29 05:34:54;;;;;;;42.25;18.20;;;8.10;99.90;;;-144.05;84.50;125687.94;5035596;28;20135;-76
2022/11/29 05:38:02;;;;;;;45.85;17.33;;;8.10;99.90;;;-144.05;84.36;125687.94;5035520;28;20049;-78
2022/11/29 05:41:30;;;;;;;47.05;19.35;;;8.10;99.90;;;-144.05;84.51;125687.94;5017429;28;20044;-78
2022/11/29 05:44:36;;;;;;;44.85;17.95;;;8.10;99.90;;;-144.05;83.91;125687.94;5035359;28;20029;-78
2022/11/29 05:47:08;;;;;;;49.90;18.98;;;8.00;99.90;;;-144.05;84.06;125687.94;5035363;28;20064;-78
2022/11/29 05:49:59;;;;;;;58.83;20.00;;;8.00;99.90;;;-144.05;84.19;125687.94;5034238;28;20496;-77
2022/11/29 05:52:49;;;;;;;55.03;19.92;;;8.00;99.90;;;-144.05;84.11;125687.94;5035114;28;20087;-77
2022/11/29 05:55:57;;;;;;;51.35;20.00;;;7.90;99.90;;;-144.05;83.51;125687.94;5034945;28;20033;-77
2022/11/29 05:59:02;;;;;;;53.08;22.88;;;7.90;99.90;;;-144.05;83.47;125687.94;5035215;28;20029;-77
2022/11/29 06:01:48;;;;;;;49.75;20.17;;;7.90;99.90;;;-144.05;83.22;125687.94;5034964;28;20025;-76
2022/11/29 06:04:48;;;;;;;42.47;18.10;;;7.90;99.90;;;-144.05;83.42;125687.94;5035255;28;20037;-78
2022/11/29 06:07:25;;;;;;;36.70;16.25;;;7.90;99.90;;;-144.05;83.35;125687.94;5035157;28;20053;-77
2022/11/29 06:10:12;;;;;;;43.13;17.55;;;7.90;99.90;;;-144.05;83.71;125687.94;5035064;28;20108;-78
2022/11/29 06:12:44;;;;;;;42.47;16.02;;;7.80;99.90;;;-144.05;83.59;125687.94;5034430;28;20044;-79
2022/11/29 06:15:28;;;;;;;50.47;15.32;;;7.80;99.90;;;-144.05;83.43;125687.94;5033033;28;20096;-79
2022/11/29 06:18:30;;;;;;;40.40;15.23;;;7.80;99.90;;;-144.05;83.30;125687.94;5033036;28;20125;-76
2022/11/29 06:21:12;;;;;;;36.30;13.90;;;7.80;99.90;;;-144.05;83.46;125687.94;5034877;28;20036;-75
2022/11/29 06:24:07;;;;;;;46.90;16.05;;;7.80;99.90;;;-144.05;83.48;125687.94;5036725;28;20036;-78
2022/11/29 06:27:32;;;;;;;49.60;17.10;;;7.80;99.90;;;-144.05;82.93;125687.94;5037237;28;20022;-77
2022/11/29 06:30:26;;;;;;;46.35;17.00;;;7.80;99.90;;;-144.05;82.91;125687.94;5048841;28;20026;-77
2022/11/29 06:33:27;;;;;;;42.85;15.77;;;7.80;99.90;;;-144.05;82.85;125687.94;5031112;28;20044;-77
2022/11/29 06:36:35;;;;;;;36.85;14.45;;;7.70;99.90;;;-144.05;83.12;125687.94;5035181;28;20029;-77
2022/11/29 06:39:01;;;;;;;39.80;14.73;;;7.80;99.90;;;-144.05;83.00;125687.94;5036497;28;20192;-75
2022/11/29 06:41:28;;;;;;;40.72;14.18;;;7.80;99.90;;;-144.05;83.11;125687.94;5039525;28;20480;-79
2022/11/29 06:43:54;;;;;;;40.50;15.00;;;7.80;99.90;;;-144.05;83.27;125687.94;5037986;28;20087;-78
2022/11/29 06:47:13;;;;;;;39.78;15.52;;;7.80;99.90;;;-144.05;83.00;125687.94;5041384;28;20014;-79
2022/11/29 06:49:49;;;;;;;43.85;16.27;;;7.80;99.90;;;-144.05;83.19;125687.94;5026999;28;20105;-78
2022/11/29 06:52:43;;;;;;;51.38;18.77;;;7.80;99.90;;;-144.05;83.03;125687.94;5037368;28;20323;-78
2022/11/29 06:55:41;;;;;;;40.05;15.68;;;7.80;99.90;;;-144.05;83.28;125687.94;5058096;28;20071;-78
2022/11/29 06:58:56;;;;;;;47.35;17.95;;;7.80;99.90;;;-144.05;83.01;125687.94;5039208;28;20101;-80
2022/11/29 07:02:03;;;;;;;46.70;17.27;;;7.80;99.90;;;-144.05;82.86;125687.94;5038668;28;20053;-76
2022/11/29 07:05:14;;;;;;;55.80;17.40;;;7.80;99.90;;;-144.05;83.09;125687.94;5037265;28;20072;-76
2022/11/29 07:07:41;;;;;;;43.35;15.38;;;7.80;99.90;;;-144.05;82.96;125687.94;5035391;28;20036;-78
2022/11/29 07:10:17;;;;;;;39.53;15.70;;;7.80;99.90;;;-144.05;82.91;125687.94;5041091;28;20025;-78
2022/11/29 07:12:47;;;;;;;43.45;15.57;;;7.80;99.90;;;-144.05;83.07;125687.94;5039231;28;20030;-77
2022/11/29 07:15:19;;;;;;;45.85;16.10;;;7.80;99.90;;;-144.05;83.07;125687.94;5039230;28;20057;-79
2022/11/29 07:18:27;;;;;;;47.33;16.95;;;7.80;99.90;;;-144.05;83.01;125687.94;5037423;28;20507;-80
2022/11/29 07:21:04;;;;;;;37.35;14.30;;;7.80;99.90;;;-144.05;82.73;125687.94;5036686;28;20036;-79
2022/11/29 07:23:49;;;;;;;43.45;16.38;;;7.80;99.90;;;-144.05;82.65;125687.94;5037933;28;20382;-80
2022/11/29 07:26:45;;;;;;;55.03;18.23;;;7.80;99.90;;;-144.05;82.56;125687.94;5038368;28;20022;-78
2022/11/29 07:30:26;;;;;;;55.33;18.25;;;7.80;99.90;;;-144.05;82.19;125687.94;5036670;28;20030;-79
2022/11/29 07:33:31;;;;;;;58.13;16.20;;;7.80;99.90;;;-144.05;82.14;125687.94;5034793;28;20034;-80
2022/11/29 07:37:07;;;;;;;53.00;17.98;;;7.80;99.90;;;-144.05;82.14;125687.94;5055569;28;20048;-80
2022/11/29 07:40:04;;;;;;;51.20;17.73;;;7.80;99.90;;;-144.05;81.91;125687.94;5031680;28;20048;-80
2022/11/29 07:43:41;;;;;;;58.08;19.60;;;7.80;99.90;;;-144.05;82.01;125687.94;5037519;28;20071;-77
2022/11/29 07:46:07;;;;;;;66.78;18.73;;;7.80;99.90;;;-144.05;81.86;125687.94;5035211;28;20044;-81
2022/11/29 07:48:32;;;;;;;50.17;17.90;;;7.80;99.90;;;-144.05;81.76;125687.94;5047481;28;20033;-78
2022/11/29 07:51:01;;;;;;;46.20;16.92;;;7.80;99.90;;;-144.05;81.60;125687.94;5030505;28;20169;-78
2022/11/29 07:53:27;;;;;;;57.30;18.30;;;7.80;99.90;;;-144.05;81.28;125687.94;5031695;28;20079;-78
2022/11/29 07:55:53;;;;;;;53.35;17.15;;;7.80;99.90;;;-144.05;81.60;125687.94;5030796;28;20022;-78
2022/11/29 07:58:19;;;;;;;40.42;14.98;;;7.80;99.90;;;-144.05;81.45;125687.94;5031941;28;20037;-79
2022/11/29 08:00:45;;;;;;;61.78;17.15;;;7.80;99.90;;;-144.05;81.72;125687.94;5054561;28;20056;-80
2022/11/29 08:03:11;;;;;;;45.30;16.50;;;7.80;99.90;;;-144.05;81.61;125687.94;5037306;28;20026;-79
2022/11/29 08:05:38;;;;;;;42.47;16.25;;;7.80;99.90;;;-144.05;81.54;125687.94;5036529;28;20030;-78
2022/11/29 08:08:05;;;;;;;50.50;16.85;;;7.80;99.90;;;-144.05;81.31;125687.94;5033277;28;20547;-78
2022/11/29 08:10:31;;;;;;;50.90;15.82;;;7.80;99.90;;;-144.05;81.33;125687.94;5033028;28;20068;-79
2022/11/29 08:12:57;;;;;;;42.40;15.50;;;7.80;99.90;;;-144.05;80.92;125687.94;5032234;28;20022;-76
2022/11/29 08:15:24;;;;;;;47.75;15.77;;;7.80;99.90;;;-144.05;80.68;125687.94;5030648;28;20473;-78
2022/11/29 08:17:51;;;;;;;44.88;17.08;;;7.80;99.90;;;-144.05;80.52;125687.94;5031757;28;20037;-79
2022/11/29 08:20:18;;;;;;;42.50;14.60;;;7.90;99.90;;;-144.05;80.77;125687.94;5031590;28;20040;-78
2022/11/29 08:22:44;;;;;;;44.13;15.68;;;7.90;99.90;;;-144.05;80.80;125687.94;5031946;28;20033;-79
2022/11/29 08:25:11;;;;;;;46.80;14.68;;;7.90;99.90;;;-144.05;80.22;125687.94;5031763;28;20040;-78
2022/11/29 08:27:37;;;;;;;37.38;14.27;;;7.90;99.90;;;-144.05;80.34;125687.94;5030577;28;20443;-78
2022/11/29 08:30:06;;;;;;;38.30;13.65;;;7.90;99.90;;;-144.05;80.44;125687.94;5031370;28;20032;-78
2022/11/29 08:32:33;;;;;;;40.05;15.70;;;7.90;99.90;;;-144.05;80.36;125687.94;5031477;28;20026;-78
2022/11/29 08:34:59;;;;;;;46.85;13.50;;;8.00;99.90;;;-144.05;80.05;125687.94;5031683;28;20151;-76
2022/11/29 08:37:25;;;;;;;40.72;13.60;;;8.00;99.90;;;-144.05;79.77;125687.94;5032368;28;20065;-78
2022/11/29 08:39:51;;;;;;;35.53;12.85;;;8.00;99.90;;;-144.05;79.86;125687.94;5030242;28;20156;-76
2022/11/29 08:42:17;;;;;;;32.65;12.98;;;8.00;99.90;;;-144.05;79.86;125687.94;5031585;28;20029;-77
2022/11/29 08:44:43;;;;;;;28.30;11.63;;;8.00;99.90;;;-144.05;79.94;125687.94;5030594;28;20034;-79
2022/11/29 08:50:00;;;;;;;39.05;13.45;;;8.10;99.90;;;-144.05;79.77;125687.94;5031858;28;20174;-78
2022/11/29 08:55:26;;;;;;;29.42;12.05;;;8.10;99.90;;;-144.05;79.58;125687.94;5035536;28;20048;-78
2022/11/29 08:58:00;;;;;;;34.47;12.00;;;8.10;99.90;;;-144.05;79.54;125687.94;5035088;28;20033;-78
2022/11/29 09:00:26;;;;;;;33.60;13.50;;;8.10;99.90;;;-144.05;79.43;125687.94;5033992;28;20088;-78
2022/11/29 09:02:51;;;;;;;34.25;12.23;;;8.10;99.90;;;-144.05;79.52;125687.94;5035138;28;20021;-78
2022/11/29 09:05:17;;;;;;;36.17;12.63;;;8.20;99.90;;;-144.05;79.73;125687.94;5035195;28;20469;-77
2022/11/29 09:07:45;;;;;;;30.73;11.02;;;8.20;99.90;;;-144.05;79.57;125687.94;5034992;28;20067;-78
2022/11/29 09:10:11;;;;;;;29.70;12.20;;;8.30;99.90;;;-144.05;79.50;125687.94;5033814;28;20029;-78
2022/11/29 09:12:39;;;;;;;34.85;12.95;;;8.30;99.90;;;-144.05;79.69;125687.94;5034776;28;20484;-78
2022/11/29 09:15:09;;;;;;;35.28;12.70;;;8.40;99.90;;;-144.05;79.69;125687.94;5033802;28;20029;-80
2022/11/29 09:17:35;;;;;;;38.17;12.57;;;8.40;99.90;;;-144.05;79.65;125687.94;5049906;28;20036;-76
2022/11/29 09:20:02;;;;;;;33.65;12.25;;;8.40;99.90;;;-144.05;79.67;125687.94;5033524;28;20025;-76
2022/11/29 09:22:28;;;;;;;32.03;13.32;;;8.50;99.90;;;-144.05;79.45;125687.94;5033063;28;20071;-76
2022/11/29 09:24:54;;;;;;;34.50;12.45;;;8.50;99.90;;;-144.05;79.03;125687.94;5033533;28;20029;-78
2022/11/29 09:27:20;;;;;;;38.95;13.32;;;8.50;99.90;;;-144.05;79.08;125687.94;5034725;28;20030;-76
2022/11/29 09:29:46;;;;;;;34.45;13.52;;;8.50;99.90;;;-144.05;78.85;125687.94;5034801;28;20088;-80
2022/11/29 09:32:11;;;;;;;32.10;11.77;;;8.60;99.90;;;-144.05;78.74;125687.94;5034669;28;20044;-78
2022/11/29 09:34:37;;;;;;;41.53;14.18;;;8.60;99.90;;;-144.05;77.73;125687.94;5034511;28;20059;-78
2022/11/29 09:37:04;;;;;;;38.65;11.15;;;8.60;99.90;;;-144.05;77.36;125687.94;5034900;28;20025;-78
2022/11/29 09:39:30;;;;;;;38.10;13.52;;;8.60;99.90;;;-144.05;76.22;125687.94;5034276;28;20480;-78
2022/11/29 09:42:28;;;;;;;40.85;13.40;;;8.60;99.90;;;-144.05;76.48;125687.94;5032893;28;20030;-78
2022/11/29 09:45:17;;;;;;;36.70;11.30;;;8.70;99.90;;;-144.05;76.11;125687.94;5033217;28;20133;-79
2022/11/29 09:48:41;;;;;;;48.45;13.18;;;8.70;99.90;;;-144.05;76.19;125687.94;5049276;28;20021;-78
2022/11/29 09:51:35;;;;;;;41.45;13.20;;;8.70;99.90;;;-144.05;75.86;125687.94;5034194;28;20022;-78
2022/11/29 09:54:41;;;;;;;45.53;16.67;;;8.80;99.90;;;-144.05;75.17;125687.94;5034212;28;20018;-79
2022/11/29 09:57:09;;;;;;;35.00;13.17;;;8.90;99.90;;;-144.05;75.05;125687.94;5034251;28;20044;-78
2022/11/29 09:59:45;;;;;;;39.25;14.13;;;8.90;99.90;;;-144.05;74.53;125687.94;5033815;28;20029;-76
2022/11/29 10:02:44;;;;;;;46.05;14.73;;;8.90;99.90;;;-144.05;73.87;125687.94;5032365;28;20266;-76
2022/11/29 10:05:45;;;;;;;44.58;15.77;;;8.90;99.90;;;-144.05;73.82;125687.94;5034086;28;20030;-76
2022/11/29 10:08:31;;;;;;;41.28;14.45;;;8.90;99.90;;;-144.05;73.55;125687.94;5046079;28;20500;-79
2022/11/29 10:11:31;;;;;;;35.15;12.85;;;8.80;99.90;;;-144.05;74.04;125687.94;5035012;28;20029;-78
2022/11/29 10:14:25;;;;;;;42.53;13.20;;;8.90;99.90;;;-144.05;74.07;125687.94;5033947;28;20023;-79
2022/11/29 10:16:56;;;;;;;39.17;11.80;;;8.90;99.90;;;-144.05;73.88;125687.94;5032672;28;20196;-76
2022/11/29 10:19:45;;;;;;;34.08;12.20;;;8.90;99.90;;;-144.05;73.73;125687.94;5033853;28;20091;-78
2022/11/29 10:22:37;;;;;;;42.95;14.02;;;8.90;99.90;;;-144.05;73.27;125687.94;5033815;28;20037;-76
2022/11/29 10:25:14;;;;;;;41.92;14.00;;;8.90;99.90;;;-144.05;73.71;125687.94;5032439;28;20033;-79
2022/11/29 10:27:40;;;;;;;42.72;13.38;;;8.90;99.90;;;-144.05;73.76;125687.94;5032285;28;20431;-79
2022/11/29 10:30:16;;;;;;;41.78;13.20;;;9.00;99.90;;;-144.05;73.85;125687.94;5051122;28;20041;-80
2022/11/29 10:32:53;;;;;;;47.30;15.18;;;9.00;99.90;;;-144.05;73.57;125687.94;5042132;28;20029;-80
2022/11/29 10:35:21;;;;;;;47.17;15.15;;;9.00;99.90;;;-144.05;73.77;125687.94;5032439;28;20503;-78
2022/11/29 10:37:53;;;;;;;39.13;13.75;;;9.00;99.90;;;-144.05;73.57;125687.94;5033729;28;20080;-79
2022/11/29 10:40:33;;;;;;;40.55;14.15;;;9.00;99.90;;;-144.05;73.89;125687.94;5048877;28;20440;-78
2022/11/29 10:43:01;;;;;;;36.25;13.98;;;9.00;99.90;;;-144.05;73.94;125687.94;5033759;28;20466;-78
2022/11/29 10:45:52;;;;;;;44.85;16.30;;;9.00;99.90;;;-144.05;74.33;125687.94;5032650;28;20517;-78
2022/11/29 10:48:32;;;;;;;41.47;15.90;;;8.90;99.90;;;-144.05;75.14;125687.94;5048826;28;20156;-80
2022/11/29 10:51:00;;;;;;;47.95;16.70;;;8.90;99.90;;;-144.05;74.67;125687.94;5033546;28;20116;-79
2022/11/29 10:53:36;;;;;;;51.83;17.55;;;8.90;99.90;;;-144.05;75.03;125687.94;5032066;28;20033;-78
2022/11/29 10:56:23;;;;;;;56.17;19.20;;;8.80;99.90;;;-144.05;74.49;125687.94;5048848;28;20445;-77
2022/11/29 10:59:08;;;;;;;56.25;18.08;;;8.80;99.90;;;-144.05;74.75;125687.94;5031889;28;20061;-79
2022/11/29 11:01:42;;;;;;;50.63;18.15;;;8.80;99.90;;;-144.05;74.96;125687.94;5032991;28;20040;-79
2022/11/29 11:04:36;;;;;;;46.88;17.95;;;8.80;99.90;;;-144.05;75.30;125687.94;5031809;28;20424;-76
2022/11/29 11:07:05;;;;;;;49.58;17.88;;;8.80;99.90;;;-144.05;75.43;125687.94;5031356;28;20476;-77
2022/11/29 11:10:25;;;;;;;48.85;17.63;;;8.90;99.90;;;-144.05;75.08;125687.94;5032533;28;20481;-79
2022/11/29 11:13:20;;;;;;;50.75;17.38;;;8.80;99.90;;;-144.05;74.90;125687.94;5031439;28;20045;-78